Time;durP1;ratioP1;P1;durP2;ratioP2;P2;SDS_P1;SDS_P2;PMS_P1;PMS_P2;Temp;Humidity;BMP_temperature;BMP_pressure;BME280_temperature;BME280_humidity;BME280_pressure;Samples;Min_cycle;Max_cycle;Signal;HPM_P1;HPM_P2
2023/06/22 00:00:55;;;;;;;11.00;5.70;;;25.60;57.10;;;;;;5054005;28;20032;-74
2023/06/22 00:03:22;;;;;;;6.28;5.68;;;25.50;57.10;;;;;;5054006;28;20074;-75
2023/06/22 00:05:48;;;;;;;6.60;5.85;;;25.50;57.20;;;;;;5036276;28;20029;-74
2023/06/22 00:08:15;;;;;;;7.35;6.63;;;25.50;57.30;;;;;;5054252;28;20540;-74
2023/06/22 00:10:42;;;;;;;7.45;6.70;;;25.50;57.30;;;;;;5053916;28;20025;-75
2023/06/22 00:13:08;;;;;;;7.13;6.10;;;25.60;57.40;;;;;;5053982;28;20520;-74
2023/06/22 00:15:35;;;;;;;7.22;6.28;;;25.60;57.30;;;;;;5054321;28;20538;-74
2023/06/22 00:18:02;;;;;;;7.15;6.15;;;25.60;57.30;;;;;;5053885;28;20025;-74
2023/06/22 00:20:28;;;;;;;6.47;5.60;;;25.60;57.40;;;;;;5053844;28;20047;-74
2023/06/22 00:22:55;;;;;;;6.55;5.88;;;25.60;57.40;;;;;;5054056;28;20025;-74
2023/06/22 00:25:21;;;;;;;6.50;5.90;;;25.50;57.40;;;;;;5035994;28;20528;-74
2023/06/22 00:27:47;;;;;;;7.68;6.30;;;25.50;57.50;;;;;;5053605;28;20025;-75
2023/06/22 00:30:13;;;;;;;7.28;5.70;;;25.50;57.50;;;;;;5035899;28;20540;-74
2023/06/22 00:32:39;;;;;;;6.20;5.38;;;25.50;57.50;;;;;;5036066;28;20021;-74
2023/06/22 00:35:05;;;;;;;6.53;5.80;;;25.40;57.50;;;;;;5053536;28;20433;-75
2023/06/22 00:37:31;;;;;;;7.47;6.03;;;25.40;57.60;;;;;;5035636;28;20465;-74
2023/06/22 00:39:56;;;;;;;7.03;5.85;;;25.40;57.70;;;;;;5053893;28;20033;-73
2023/06/22 00:42:22;;;;;;;6.13;5.53;;;25.30;57.80;;;;;;5052252;28;20484;-75
2023/06/22 00:44:48;;;;;;;7.05;5.80;;;25.30;57.80;;;;;;5053623;28;20036;-75
2023/06/22 00:47:17;;;;;;;7.57;6.15;;;25.30;57.90;;;;;;5053552;28;20029;-75
2023/06/22 00:49:43;;;;;;;7.25;6.10;;;25.20;58.60;;;;;;5035885;28;20025;-74
2023/06/22 00:52:13;;;;;;;6.80;6.10;;;25.20;58.10;;;;;;5035780;28;20051;-74
2023/06/22 00:54:46;;;;;;;7.32;6.60;;;25.20;58.20;;;;;;5053964;28;20064;-75
2023/06/22 00:57:16;;;;;;;6.72;6.03;;;25.20;58.30;;;;;;5035666;28;20033;-74
2023/06/22 00:59:47;;;;;;;6.93;6.22;;;25.10;58.30;;;;;;5053464;28;20029;-74
2023/06/22 01:02:13;;;;;;;7.88;6.18;;;25.10;58.40;;;;;;5035947;28;20032;-74
2023/06/22 01:04:39;;;;;;;7.95;6.20;;;25.10;58.50;;;;;;5055132;28;20032;-75
2023/06/22 01:07:27;;;;;;;7.32;6.50;;;25.10;58.50;;;;;;5057336;28;20029;-75
2023/06/22 01:10:26;;;;;;;7.40;6.55;;;25.10;59.00;;;;;;5057610;28;20021;-74
2023/06/22 01:12:58;;;;;;;8.35;6.60;;;25.00;58.70;;;;;;5039430;28;20029;-74
2023/06/22 01:15:30;;;;;;;7.10;6.40;;;25.00;58.50;;;;;;5057105;28;20037;-74
2023/06/22 01:17:58;;;;;;;7.75;6.95;;;25.00;58.60;;;;;;5057646;28;20074;-75
2023/06/22 01:20:27;;;;;;;8.88;7.32;;;25.00;58.70;;;;;;5057492;28;20021;-74
2023/06/22 01:23:11;;;;;;;8.43;7.50;;;25.00;58.80;;;;;;5057192;28;20037;-74
2023/06/22 01:25:57;;;;;;;9.00;7.63;;;24.90;58.80;;;;;;5039373;28;20028;-75
2023/06/22 01:28:44;;;;;;;8.60;6.97;;;24.90;58.80;;;;;;5039510;28;20021;-75
2023/06/22 01:31:13;;;;;;;7.70;6.63;;;24.90;59.00;;;;;;5056848;28;20032;-75
2023/06/22 01:33:42;;;;;;;8.63;7.72;;;24.80;58.80;;;;;;5057075;28;20021;-75
2023/06/22 01:36:09;;;;;;;8.07;7.10;;;24.80;58.90;;;;;;5056960;28;20041;-75
2023/06/22 01:38:37;;;;;;;8.55;7.65;;;24.70;58.90;;;;;;5056893;28;20467;-75
2023/06/22 01:41:03;;;;;;;8.90;7.88;;;24.70;59.00;;;;;;5038956;28;20031;-75
2023/06/22 01:43:30;;;;;;;9.77;7.57;;;24.60;59.10;;;;;;5056591;28;20495;-74
2023/06/22 01:45:57;;;;;;;8.75;7.20;;;24.60;59.20;;;;;;5038850;28;20029;-74
2023/06/22 01:48:23;;;;;;;8.57;7.78;;;24.50;59.20;;;;;;5056856;28;20071;-75
2023/06/22 01:50:49;;;;;;;9.27;7.70;;;24.50;59.30;;;;;;5056752;28;20029;-73
2023/06/22 01:53:15;;;;;;;8.50;7.28;;;24.50;59.40;;;;;;5056829;28;20035;-75
2023/06/22 01:55:40;;;;;;;10.23;7.90;;;24.40;59.40;;;;;;5056535;28;20041;-75
2023/06/22 01:58:06;;;;;;;8.80;7.55;;;24.40;59.40;;;;;;5056916;28;20033;-75
2023/06/22 02:00:36;;;;;;;8.30;7.40;;;24.40;59.50;;;;;;5056706;28;20451;-75
2023/06/22 02:03:10;;;;;;;7.90;7.03;;;24.40;59.50;;;;;;5056411;28;20371;-75
2023/06/22 02:05:49;;;;;;;8.30;7.30;;;24.40;59.70;;;;;;5056226;28;20032;-74
2023/06/22 02:08:30;;;;;;;9.02;7.22;;;24.40;59.70;;;;;;5056394;28;20043;-74
2023/06/22 02:10:57;;;;;;;9.05;7.88;;;24.50;60.00;;;;;;5038475;28;20116;-75
2023/06/22 02:13:25;;;;;;;8.68;7.40;;;24.50;59.70;;;;;;5056034;28;20025;-74
2023/06/22 02:15:51;;;;;;;10.05;7.93;;;24.50;59.80;;;;;;5055464;28;20454;-74
2023/06/22 02:18:17;;;;;;;8.57;7.68;;;24.50;59.80;;;;;;5055973;28;20032;-75
2023/06/22 02:20:43;;;;;;;10.25;7.70;;;24.50;59.80;;;;;;5056198;28;20379;-75
2023/06/22 02:23:08;;;;;;;9.52;7.95;;;24.50;59.90;;;;;;5056014;28;20084;-75
2023/06/22 02:25:35;;;;;;;9.27;8.10;;;24.50;59.90;;;;;;5055951;28;20486;-74
2023/06/22 02:28:01;;;;;;;10.55;7.90;;;24.50;59.90;;;;;;5056032;28;20029;-74
2023/06/22 02:30:26;;;;;;;8.98;7.90;;;24.50;59.90;;;;;;5055934;28;20040;-74
2023/06/22 02:32:58;;;;;;;9.70;7.60;;;24.50;59.90;;;;;;5056218;28;20032;-75
2023/06/22 02:35:31;;;;;;;8.40;7.30;;;24.50;59.90;;;;;;5055800;28;20040;-74
2023/06/22 02:38:00;;;;;;;7.97;6.95;;;24.50;59.90;;;;;;5055923;28;20025;-75
2023/06/22 02:40:26;;;;;;;8.27;7.47;;;24.40;59.90;;;;;;5055712;28;20474;-75
2023/06/22 02:42:52;;;;;;;8.40;7.50;;;24.40;59.90;;;;;;5055600;28;20072;-73
2023/06/22 02:45:18;;;;;;;8.73;6.75;;;24.40;59.90;;;;;;5055429;28;20446;-75
2023/06/22 02:47:43;;;;;;;7.45;6.75;;;24.50;60.00;;;;;;5055649;28;20098;-74
2023/06/22 02:50:10;;;;;;;8.45;7.53;;;24.50;59.90;;;;;;5055867;28;20029;-74
2023/06/22 02:52:36;;;;;;;9.05;7.43;;;24.50;60.00;;;;;;5055463;28;20087;-74
2023/06/22 02:55:01;;;;;;;7.75;6.95;;;24.50;60.00;;;;;;5037419;28;20041;-74
2023/06/22 02:57:27;;;;;;;8.13;7.00;;;24.50;60.00;;;;;;5055498;28;20025;-73
2023/06/22 02:59:53;;;;;;;8.32;7.05;;;24.50;60.00;;;;;;5055148;28;20048;-75
2023/06/22 03:02:21;;;;;;;7.28;6.57;;;24.50;59.90;;;;;;5055657;28;20029;-75
2023/06/22 03:04:49;;;;;;;7.85;6.90;;;24.50;60.20;;;;;;5055368;28;20032;-74
2023/06/22 03:07:15;;;;;;;7.25;6.55;;;24.50;60.00;;;;;;5054488;28;20036;-75
2023/06/22 03:09:42;;;;;;;7.68;6.88;;;24.60;60.00;;;;;;5054073;28;20054;-75
2023/06/22 03:12:08;;;;;;;9.18;6.82;;;24.60;60.00;;;;;;5037063;28;20029;-74
2023/06/22 03:14:33;;;;;;;7.90;6.85;;;24.70;60.00;;;;;;5055580;28;20152;-75
2023/06/22 03:17:02;;;;;;;8.90;7.30;;;24.70;60.00;;;;;;5055576;28;20449;-74
2023/06/22 03:19:31;;;;;;;7.72;6.93;;;24.70;59.90;;;;;;5055077;28;20025;-75
2023/06/22 03:21:57;;;;;;;8.20;6.85;;;24.70;59.90;;;;;;5055048;28;20029;-75
2023/06/22 03:24:22;;;;;;;7.55;6.82;;;24.80;59.90;;;;;;5055093;28;20017;-75
2023/06/22 03:26:48;;;;;;;8.20;6.78;;;24.80;59.80;;;;;;5053862;28;20426;-74
2023/06/22 03:29:14;;;;;;;7.60;6.80;;;24.90;59.80;;;;;;5036890;28;20025;-75
2023/06/22 03:31:39;;;;;;;8.48;7.30;;;24.90;59.70;;;;;;5054857;28;20032;-76
2023/06/22 03:34:05;;;;;;;7.50;6.70;;;24.90;59.70;;;;;;5036891;28;20459;-75
2023/06/22 03:36:31;;;;;;;7.72;6.90;;;24.90;59.60;;;;;;5054622;28;20035;-75
2023/06/22 03:38:57;;;;;;;8.02;7.22;;;25.00;59.70;;;;;;5036842;28;20447;-75
2023/06/22 03:41:22;;;;;;;7.75;6.80;;;24.90;59.50;;;;;;5054482;28;20029;-75
2023/06/22 03:43:48;;;;;;;8.80;7.20;;;24.90;59.70;;;;;;5054603;28;20467;-75
2023/06/22 03:46:13;;;;;;;8.55;6.78;;;25.00;59.60;;;;;;5054707;28;20032;-75
2023/06/22 03:48:39;;;;;;;7.70;6.93;;;25.00;59.60;;;;;;5036471;28;20159;-75
2023/06/22 03:51:05;;;;;;;7.35;6.53;;;25.00;59.60;;;;;;5054298;28;20025;-75
2023/06/22 03:53:31;;;;;;;6.80;6.10;;;25.00;59.60;;;;;;5036397;28;20044;-75
2023/06/22 03:55:57;;;;;;;7.60;6.80;;;25.00;59.60;;;;;;5054006;28;20426;-74
2023/06/22 03:58:23;;;;;;;8.18;7.35;;;25.00;59.60;;;;;;5036683;28;20043;-76
2023/06/22 04:00:50;;;;;;;7.00;6.30;;;25.00;59.60;;;;;;5027053;28;20354;-75
2023/06/22 04:03:18;;;;;;;6.72;6.03;;;25.00;59.70;;;;;;5014381;28;20105;-75
2023/06/22 04:05:44;;;;;;;8.07;7.00;;;25.10;59.90;;;;;;4996854;28;20038;-75
2023/06/22 04:08:10;;;;;;;8.23;7.28;;;25.00;59.80;;;;;;5014324;28;20030;-75
2023/06/22 04:10:36;;;;;;;8.45;7.65;;;25.00;59.80;;;;;;5014079;28;20483;-74
2023/06/22 04:13:02;;;;;;;7.18;6.18;;;25.00;59.90;;;;;;5014370;28;20041;-75
2023/06/22 04:15:27;;;;;;;8.60;6.78;;;25.00;60.00;;;;;;5014265;28;20464;-75
2023/06/22 04:17:54;;;;;;;8.20;7.07;;;25.00;60.00;;;;;;5013273;28;20117;-75
2023/06/22 04:20:20;;;;;;;7.50;6.70;;;25.00;60.10;;;;;;5014071;28;20026;-75
2023/06/22 04:22:46;;;;;;;7.78;6.97;;;25.10;60.20;;;;;;5014239;28;20080;-75
2023/06/22 04:25:11;;;;;;;7.55;6.85;;;25.10;60.30;;;;;;4996603;28;20392;-75
2023/06/22 04:27:40;;;;;;;9.48;7.75;;;25.10;60.20;;;;;;5014183;28;20026;-75
2023/06/22 04:30:07;;;;;;;7.57;6.78;;;25.20;60.40;;;;;;5014799;28;20025;-75
2023/06/22 04:32:33;;;;;;;7.60;6.90;;;25.20;60.30;;;;;;5053524;28;20438;-75
2023/06/22 04:35:02;;;;;;;9.80;7.70;;;25.20;60.30;;;;;;5035636;28;20037;-75
2023/06/22 04:37:27;;;;;;;7.97;7.10;;;25.30;60.30;;;;;;5053509;28;20070;-73
2023/06/22 04:39:53;;;;;;;8.07;7.22;;;25.40;60.50;;;;;;5053212;28;20099;-74
2023/06/22 04:42:19;;;;;;;7.80;7.10;;;25.40;60.50;;;;;;5053432;28;20048;-75
2023/06/22 04:44:44;;;;;;;8.70;7.80;;;25.40;60.50;;;;;;5053704;28;20033;-75
2023/06/22 04:47:10;;;;;;;9.27;7.30;;;25.50;60.50;;;;;;5046990;28;20099;-75
2023/06/22 04:49:37;;;;;;;8.13;7.20;;;25.50;60.50;;;;;;5033506;28;20027;-75
2023/06/22 04:52:07;;;;;;;8.77;7.70;;;25.50;61.00;;;;;;5041162;28;20025;-74
2023/06/22 04:54:34;;;;;;;8.95;7.13;;;25.60;60.50;;;;;;5024186;28;20459;-75
2023/06/22 04:57:05;;;;;;;9.43;7.70;;;25.60;60.50;;;;;;5042396;28;20112;-75
2023/06/22 04:59:31;;;;;;;9.00;7.13;;;25.70;60.50;;;;;;5037836;28;20443;-76
2023/06/22 05:02:02;;;;;;;7.60;6.80;;;25.70;60.50;;;;;;5042378;28;20451;-76
2023/06/22 05:04:32;;;;;;;9.23;6.88;;;25.80;60.70;;;;;;5045399;28;20021;-75
2023/06/22 05:07:00;;;;;;;8.68;7.07;;;25.80;60.60;;;;;;5035023;28;20083;-76
2023/06/22 05:09:26;;;;;;;7.85;7.03;;;25.80;60.60;;;;;;5053372;28;20115;-74
2023/06/22 05:11:51;;;;;;;7.80;6.90;;;25.90;60.60;;;;;;5052816;28;20451;-73
2023/06/22 05:14:18;;;;;;;7.97;7.05;;;25.90;60.70;;;;;;5033220;28;20048;-73
2023/06/22 05:16:45;;;;;;;7.60;6.82;;;26.00;60.80;;;;;;5032938;28;20063;-73
2023/06/22 05:19:11;;;;;;;7.32;6.63;;;26.00;60.80;;;;;;5032920;28;20044;-72
2023/06/22 05:21:37;;;;;;;9.63;7.00;;;26.00;60.80;;;;;;5033098;28;20456;-73
2023/06/22 05:24:03;;;;;;;7.65;6.85;;;26.00;60.80;;;;;;5032859;28;20037;-72
2023/06/22 05:26:33;;;;;;;7.32;6.63;;;26.10;60.90;;;;;;5032676;28;20056;-73
2023/06/22 05:29:00;;;;;;;7.75;6.72;;;26.10;60.80;;;;;;5032990;28;20105;-73
2023/06/22 05:31:26;;;;;;;7.60;6.40;;;26.10;60.80;;;;;;5014395;28;20524;-74
2023/06/22 05:33:53;;;;;;;7.28;6.57;;;26.20;60.80;;;;;;5030664;28;20029;-72
2023/06/22 05:36:24;;;;;;;7.13;6.40;;;26.20;60.80;;;;;;4997103;28;20144;-73
2023/06/22 05:38:51;;;;;;;6.72;6.13;;;26.20;60.80;;;;;;5012074;28;20029;-73
2023/06/22 05:41:16;;;;;;;7.10;6.38;;;26.30;60.80;;;;;;5013593;28;20029;-74
2023/06/22 05:43:42;;;;;;;6.82;6.13;;;26.30;60.80;;;;;;5013570;28;20049;-74
2023/06/22 05:46:08;;;;;;;7.35;5.90;;;26.30;60.70;;;;;;5013340;28;20026;-78
2023/06/22 05:48:33;;;;;;;6.93;6.13;;;26.30;60.70;;;;;;5011838;28;20518;-75
2023/06/22 05:50:59;;;;;;;9.38;5.75;;;26.40;60.80;;;;;;5026277;28;20487;-72
2023/06/22 05:53:25;;;;;;;6.80;6.05;;;26.40;60.70;;;;;;5036082;28;20065;-72
2023/06/22 05:55:50;;;;;;;6.22;5.63;;;26.40;60.60;;;;;;5016824;28;20037;-71
2023/06/22 05:58:16;;;;;;;6.72;5.70;;;26.40;60.60;;;;;;5035587;28;20029;-72
2023/06/22 06:00:43;;;;;;;6.22;5.55;;;26.50;60.50;;;;;;5036418;28;20445;-72
2023/06/22 06:03:09;;;;;;;6.43;5.80;;;26.50;60.50;;;;;;5033481;28;20387;-72
2023/06/22 06:05:36;;;;;;;6.30;5.70;;;26.60;60.40;;;;;;5036414;28;20033;-72
2023/06/22 06:08:07;;;;;;;5.65;5.05;;;26.50;60.10;;;;;;5018541;28;20036;-72
2023/06/22 06:10:33;;;;;;;6.03;5.20;;;26.60;60.10;;;;;;5036442;28;20112;-72
2023/06/22 06:13:04;;;;;;;6.03;4.88;;;26.60;60.00;;;;;;5018494;28;20080;-72
2023/06/22 06:15:30;;;;;;;6.32;5.35;;;26.60;59.70;;;;;;5018466;28;20040;-71
2023/06/22 06:17:57;;;;;;;6.50;5.50;;;26.60;59.60;;;;;;5018421;28;20458;-72
2023/06/22 06:20:24;;;;;;;5.60;4.97;;;26.70;59.50;;;;;;5036268;28;20028;-72
2023/06/22 06:22:50;;;;;;;5.80;5.20;;;26.70;59.40;;;;;;5036105;28;20030;-72
2023/06/22 06:25:18;;;;;;;4.80;4.28;;;26.70;59.30;;;;;;5035936;28;20100;-72
2023/06/22 06:27:45;;;;;;;5.93;5.00;;;26.80;59.00;;;;;;5035821;28;20091;-72
2023/06/22 06:30:12;;;;;;;5.43;4.72;;;26.70;58.70;;;;;;5018026;28;20112;-72
2023/06/22 06:32:39;;;;;;;6.80;5.03;;;26.70;58.60;;;;;;5018132;28;20391;-72
2023/06/22 06:35:09;;;;;;;5.70;4.30;;;26.70;58.40;;;;;;5035747;28;20387;-72
2023/06/22 06:37:40;;;;;;;5.75;5.13;;;26.80;58.40;;;;;;5035819;28;20033;-72
2023/06/22 06:40:10;;;;;;;5.57;4.63;;;26.80;58.40;;;;;;5018072;28;20490;-72
2023/06/22 06:42:40;;;;;;;5.63;5.00;;;26.80;58.40;;;;;;5017734;28;20054;-72
2023/06/22 06:45:10;;;;;;;5.05;4.55;;;26.80;58.30;;;;;;5035524;28;20033;-72
2023/06/22 06:47:35;;;;;;;6.82;4.57;;;26.80;58.20;;;;;;5035571;28;20483;-72
2023/06/22 06:50:02;;;;;;;5.63;4.72;;;26.80;58.10;;;;;;5035577;28;20057;-72
2023/06/22 06:52:28;;;;;;;7.10;4.40;;;26.80;58.00;;;;;;5035606;28;20057;-72
2023/06/22 06:54:53;;;;;;;5.85;4.72;;;26.80;57.90;;;;;;5035031;28;20542;-72
2023/06/22 06:57:20;;;;;;;5.93;4.63;;;26.80;57.90;;;;;;5035424;28;20392;-71
2023/06/22 06:59:46;;;;;;;6.53;5.10;;;26.80;57.70;;;;;;5035618;28;20025;-72
2023/06/22 07:02:11;;;;;;;6.10;4.97;;;26.90;57.70;;;;;;5032713;28;20033;-72
2023/06/22 07:04:37;;;;;;;5.38;4.88;;;26.90;57.60;;;;;;5033921;28;20033;-72
2023/06/22 07:07:03;;;;;;;5.43;4.53;;;26.90;57.50;;;;;;5033524;28;20025;-71
2023/06/22 07:09:28;;;;;;;5.43;4.93;;;26.90;57.20;;;;;;5035229;28;20104;-72
2023/06/22 07:11:54;;;;;;;5.30;4.80;;;26.90;57.00;;;;;;5017568;28;20029;-72
2023/06/22 07:14:20;;;;;;;5.25;4.75;;;26.90;56.90;;;;;;5033754;28;20523;-72
2023/06/22 07:16:45;;;;;;;5.28;4.65;;;26.90;56.90;;;;;;5034783;28;20124;-72
2023/06/22 07:19:14;;;;;;;5.35;4.78;;;26.90;56.80;;;;;;5035050;28;20407;-72
2023/06/22 07:21:40;;;;;;;5.30;4.80;;;27.00;56.70;;;;;;5034926;28;20499;-72
2023/06/22 07:24:06;;;;;;;4.93;4.43;;;27.00;56.60;;;;;;5034747;28;20068;-71
2023/06/22 07:26:32;;;;;;;5.07;4.57;;;27.00;56.60;;;;;;5034830;28;20075;-72
2023/06/22 07:28:58;;;;;;;5.95;5.32;;;27.00;56.60;;;;;;5035143;28;20030;-72
2023/06/22 07:31:26;;;;;;;5.68;5.03;;;27.00;56.60;;;;;;5034665;28;20022;-71
2023/06/22 07:33:52;;;;;;;5.60;4.88;;;27.00;56.50;;;;;;5033730;28;20026;-71
2023/06/22 07:36:18;;;;;;;5.72;4.90;;;27.00;56.50;;;;;;5034623;28;20030;-71
2023/06/22 07:38:44;;;;;;;6.28;4.80;;;27.00;56.50;;;;;;5034674;28;20065;-71
2023/06/22 07:41:10;;;;;;;5.15;4.65;;;27.00;56.50;;;;;;5034592;28;20025;-72
2023/06/22 07:43:36;;;;;;;5.10;4.60;;;27.00;56.40;;;;;;5034940;28;20045;-72
2023/06/22 07:46:05;;;;;;;5.13;4.63;;;27.00;56.30;;;;;;5034348;28;20456;-71
2023/06/22 07:48:31;;;;;;;5.13;4.63;;;27.00;56.20;;;;;;5034299;28;20025;-72
2023/06/22 07:50:57;;;;;;;4.70;4.10;;;27.00;56.10;;;;;;5034503;28;20041;-71
2023/06/22 07:53:23;;;;;;;5.43;4.20;;;27.10;56.00;;;;;;5016443;28;20033;-71
2023/06/22 07:55:49;;;;;;;4.65;4.15;;;27.10;55.80;;;;;;5034242;28;20120;-71
2023/06/22 07:58:15;;;;;;;4.82;4.22;;;27.20;55.90;;;;;;5016516;28;20499;-71
2023/06/22 08:00:41;;;;;;;5.13;4.20;;;27.20;55.50;;;;;;5034195;28;20028;-72
2023/06/22 08:03:07;;;;;;;4.68;3.78;;;27.20;55.40;;;;;;5033880;28;20025;-71
2023/06/22 08:05:32;;;;;;;5.25;4.75;;;27.20;55.70;;;;;;5034207;28;20033;-71
2023/06/22 08:07:58;;;;;;;4.43;3.83;;;27.30;55.00;;;;;;5016412;28;20482;-72
2023/06/22 08:10:24;;;;;;;4.38;3.97;;;27.30;54.70;;;;;;5033929;28;20116;-72
2023/06/22 08:12:52;;;;;;;5.03;4.30;;;27.40;54.60;;;;;;5015866;28;20025;-73
2023/06/22 08:15:17;;;;;;;4.55;4.00;;;27.40;54.50;;;;;;5033957;28;20022;-72
2023/06/22 08:17:45;;;;;;;4.00;3.60;;;27.50;54.40;;;;;;5034103;28;20036;-72
2023/06/22 08:20:12;;;;;;;4.40;4.00;;;27.60;54.30;;;;;;5033824;28;20025;-72
2023/06/22 08:22:38;;;;;;;3.92;3.53;;;27.60;54.20;;;;;;5033474;28;20479;-72
2023/06/22 08:25:04;;;;;;;4.68;3.70;;;27.60;54.00;;;;;;5034055;28;20060;-73
2023/06/22 08:27:33;;;;;;;5.05;4.05;;;27.60;53.90;;;;;;5016208;28;20025;-72
2023/06/22 08:30:00;;;;;;;5.85;4.82;;;27.60;54.20;;;;;;5033946;28;20025;-72
2023/06/22 08:32:27;;;;;;;5.13;4.20;;;27.60;54.70;;;;;;5033679;28;20025;-72
2023/06/22 08:34:57;;;;;;;6.93;5.50;;;27.70;55.30;;;;;;5015907;28;20091;-72
2023/06/22 08:37:30;;;;;;;5.63;5.03;;;27.80;55.30;;;;;;5016112;28;20029;-72
2023/06/22 08:40:00;;;;;;;5.85;5.25;;;27.90;55.50;;;;;;5034254;28;20017;-72
2023/06/22 08:42:27;;;;;;;5.45;4.95;;;27.90;55.80;;;;;;5015825;28;20394;-72
2023/06/22 08:44:53;;;;;;;6.43;4.68;;;28.00;56.10;;;;;;5015798;28;20120;-72
2023/06/22 08:47:20;;;;;;;6.53;5.60;;;28.10;56.10;;;;;;5015826;28;20033;-72
2023/06/22 08:49:45;;;;;;;8.40;5.68;;;28.10;56.10;;;;;;5033335;28;20036;-72
2023/06/22 08:52:11;;;;;;;5.55;5.05;;;28.20;56.90;;;;;;5034012;28;20021;-72
2023/06/22 08:54:37;;;;;;;7.55;5.50;;;28.20;56.10;;;;;;5033445;28;20025;-72
2023/06/22 08:57:03;;;;;;;6.03;4.90;;;28.10;56.20;;;;;;5033427;28;20460;-72
2023/06/22 08:59:28;;;;;;;6.45;5.78;;;28.10;56.30;;;;;;5033556;28;20030;-72
2023/06/22 09:01:54;;;;;;;9.23;5.30;;;28.10;56.50;;;;;;5033475;28;20091;-72
2023/06/22 09:04:21;;;;;;;7.22;5.60;;;28.10;56.70;;;;;;5033004;28;20113;-72
2023/06/22 09:06:48;;;;;;;7.32;6.07;;;28.10;56.80;;;;;;5033458;28;20083;-72
2023/06/22 09:09:14;;;;;;;6.85;5.47;;;28.10;56.80;;;;;;5033680;28;20112;-72
2023/06/22 09:11:40;;;;;;;5.78;5.18;;;28.10;57.00;;;;;;5015760;28;20037;-72
2023/06/22 09:14:06;;;;;;;5.55;4.82;;;28.10;57.10;;;;;;5033441;28;20033;-72
2023/06/22 09:16:32;;;;;;;6.00;5.40;;;28.10;57.20;;;;;;5033223;28;20092;-72
2023/06/22 09:18:57;;;;;;;6.47;5.20;;;28.10;57.30;;;;;;5032967;28;20029;-71
2023/06/22 09:21:23;;;;;;;6.80;5.22;;;28.10;57.50;;;;;;5033642;28;20037;-72
2023/06/22 09:23:51;;;;;;;5.78;5.13;;;28.10;57.60;;;;;;5031810;28;20033;-72
2023/06/22 09:26:17;;;;;;;4.72;4.22;;;28.10;57.70;;;;;;5035921;28;20040;-72
2023/06/22 09:28:43;;;;;;;5.93;4.90;;;28.10;57.70;;;;;;5036803;28;20033;-72
2023/06/22 09:31:09;;;;;;;6.88;5.18;;;28.10;57.80;;;;;;5037034;28;20107;-72
2023/06/22 09:33:35;;;;;;;5.75;5.18;;;28.10;57.70;;;;;;5036818;28;20483;-70
2023/06/22 09:36:01;;;;;;;6.60;4.88;;;28.10;58.30;;;;;;5037233;28;20029;-72
2023/06/22 09:38:27;;;;;;;5.47;4.95;;;28.10;57.80;;;;;;5037069;28;20032;-71
2023/06/22 09:40:52;;;;;;;6.35;5.03;;;28.10;57.80;;;;;;5037043;28;20467;-71
2023/06/22 09:43:18;;;;;;;7.00;5.15;;;28.10;58.00;;;;;;5037005;28;20053;-71
2023/06/22 09:45:44;;;;;;;5.90;5.13;;;28.10;58.20;;;;;;5036618;28;20025;-71
2023/06/22 09:48:12;;;;;;;8.00;4.93;;;28.10;58.10;;;;;;5036358;28;20034;-71
2023/06/22 09:50:37;;;;;;;5.70;4.90;;;28.10;58.10;;;;;;5036687;28;20057;-72
2023/06/22 09:53:03;;;;;;;5.80;5.05;;;28.00;58.30;;;;;;5036323;28;20116;-72
2023/06/22 09:55:29;;;;;;;5.22;4.70;;;28.00;58.60;;;;;;5036582;28;20038;-71
2023/06/22 09:57:55;;;;;;;5.97;4.90;;;28.00;58.90;;;;;;5036895;28;20038;-71
2023/06/22 10:00:22;;;;;;;6.78;5.05;;;27.90;59.30;;;;;;5035216;28;20021;-71
2023/06/22 10:02:47;;;;;;;5.35;4.85;;;28.00;59.70;;;;;;5036138;28;20028;-71
2023/06/22 10:05:13;;;;;;;5.10;4.60;;;28.00;59.70;;;;;;5036531;28;20030;-72
2023/06/22 10:07:42;;;;;;;5.32;4.43;;;28.10;59.70;;;;;;5036241;28;20410;-71
2023/06/22 10:10:08;;;;;;;5.50;4.97;;;28.10;59.60;;;;;;5036356;28;20048;-71
2023/06/22 10:12:34;;;;;;;5.13;4.57;;;28.10;59.60;;;;;;5018355;28;20025;-71
2023/06/22 10:15:00;;;;;;;6.00;5.40;;;28.10;59.60;;;;;;5036058;28;20079;-71
2023/06/22 10:17:25;;;;;;;5.68;4.72;;;28.20;59.60;;;;;;5036649;28;20068;-71
2023/06/22 10:19:51;;;;;;;5.60;4.70;;;28.20;59.50;;;;;;5036273;28;20022;-72
2023/06/22 10:22:17;;;;;;;5.13;4.57;;;28.20;59.40;;;;;;5018772;28;20374;-71
2023/06/22 10:24:44;;;;;;;5.38;4.50;;;28.30;59.30;;;;;;5036079;28;20037;-71
2023/06/22 10:27:13;;;;;;;5.05;4.55;;;28.40;59.20;;;;;;5036001;28;20021;-71
2023/06/22 10:29:39;;;;;;;7.35;4.80;;;28.40;58.90;;;;;;5035768;28;20117;-70
2023/06/22 10:32:05;;;;;;;5.30;4.80;;;28.40;58.70;;;;;;5034734;28;20120;-72
2023/06/22 10:34:31;;;;;;;5.57;4.75;;;28.50;58.60;;;;;;5035980;28;20526;-72
2023/06/22 10:36:57;;;;;;;5.50;4.75;;;28.50;58.30;;;;;;5035545;28;20170;-71
2023/06/22 10:39:22;;;;;;;6.22;4.80;;;28.50;57.60;;;;;;5035676;28;20032;-70
2023/06/22 10:41:48;;;;;;;6.03;5.00;;;28.30;57.00;;;;;;5035695;28;20021;-70
2023/06/22 10:44:13;;;;;;;4.53;4.13;;;28.20;57.00;;;;;;5034324;28;20103;-70
2023/06/22 10:46:39;;;;;;;4.65;4.15;;;28.00;56.90;;;;;;5017584;28;20112;-70
2023/06/22 10:49:05;;;;;;;4.82;3.90;;;28.00;56.90;;;;;;5035494;28;20026;-70
2023/06/22 10:51:32;;;;;;;4.97;4.47;;;27.80;56.80;;;;;;5035930;28;20352;-70
2023/06/22 10:53:57;;;;;;;4.78;4.28;;;27.70;56.80;;;;;;5035607;28;20367;-70
2023/06/22 10:56:23;;;;;;;5.72;4.28;;;27.70;56.80;;;;;;5035172;28;20088;-70
2023/06/22 10:58:49;;;;;;;4.45;3.88;;;27.60;56.70;;;;;;5035251;28;20371;-70
2023/06/22 11:01:14;;;;;;;4.97;4.43;;;27.50;56.70;;;;;;5035755;28;20096;-70
2023/06/22 11:03:40;;;;;;;5.50;4.80;;;27.40;56.80;;;;;;5035277;28;20043;-70
2023/06/22 11:06:05;;;;;;;4.88;4.38;;;27.30;56.80;;;;;;5035226;28;20040;-70
2023/06/22 11:08:31;;;;;;;5.70;4.93;;;27.20;56.70;;;;;;5035146;28;20112;-70
2023/06/22 11:10:57;;;;;;;5.28;4.78;;;27.10;56.70;;;;;;5034914;28;20480;-69
2023/06/22 11:13:22;;;;;;;5.40;4.90;;;27.10;56.60;;;;;;5033710;28;20147;-70
2023/06/22 11:15:48;;;;;;;5.30;4.40;;;27.00;56.60;;;;;;5035158;28;20448;-69
2023/06/22 11:18:14;;;;;;;5.55;4.90;;;27.00;56.60;;;;;;5034769;28;20113;-70
2023/06/22 11:20:40;;;;;;;6.20;4.78;;;27.00;56.70;;;;;;5034935;28;20370;-70
2023/06/22 11:23:06;;;;;;;6.03;4.53;;;27.10;56.60;;;;;;5035017;28;20108;-70
2023/06/22 11:25:34;;;;;;;4.97;4.47;;;27.10;56.60;;;;;;5034945;28;20098;-70
2023/06/22 11:28:03;;;;;;;4.93;4.43;;;27.20;56.40;;;;;;5034647;28;20049;-70
2023/06/22 11:30:30;;;;;;;6.25;4.80;;;27.20;56.20;;;;;;5017178;28;20091;-70
2023/06/22 11:32:58;;;;;;;5.35;4.18;;;27.30;55.90;;;;;;5016984;28;20120;-70
2023/06/22 11:35:23;;;;;;;4.43;3.92;;;27.30;55.80;;;;;;5033291;28;20029;-70
2023/06/22 11:37:49;;;;;;;4.50;4.10;;;27.40;55.70;;;;;;5034617;28;20029;-70
2023/06/22 11:40:15;;;;;;;4.45;4.03;;;27.50;55.70;;;;;;5034556;28;20036;-70
2023/06/22 11:42:40;;;;;;;4.53;3.80;;;27.60;55.50;;;;;;5034469;28;20543;-70
2023/06/22 11:45:07;;;;;;;4.20;3.75;;;27.60;55.20;;;;;;5034584;28;20372;-70
2023/06/22 11:47:33;;;;;;;4.05;3.65;;;27.70;55.00;;;;;;5034027;28;20099;-70
2023/06/22 11:49:58;;;;;;;5.00;3.67;;;27.70;54.90;;;;;;5032598;28;20029;-70
2023/06/22 11:52:24;;;;;;;4.30;3.80;;;27.90;54.90;;;;;;5034132;28;20026;-70
2023/06/22 11:54:49;;;;;;;4.18;3.70;;;28.00;54.80;;;;;;5034111;28;20464;-70
2023/06/22 11:57:15;;;;;;;4.10;3.45;;;28.00;54.60;;;;;;5033955;28;20476;-70
2023/06/22 11:59:41;;;;;;;3.28;2.97;;;28.10;54.50;;;;;;5034376;28;20021;-71
2023/06/22 12:02:07;;;;;;;4.45;3.53;;;28.10;54.40;;;;;;5034135;28;20446;-70
2023/06/22 12:04:33;;;;;;;3.65;3.20;;;28.00;54.30;;;;;;5034217;28;20038;-70
2023/06/22 12:06:58;;;;;;;3.65;3.30;;;28.00;54.10;;;;;;5033966;28;20029;-70
2023/06/22 12:09:24;;;;;;;3.47;3.10;;;28.00;53.80;;;;;;5032794;28;20029;-70
2023/06/22 12:11:50;;;;;;;5.40;3.13;;;28.00;53.60;;;;;;5034409;28;20057;-70
2023/06/22 12:14:15;;;;;;;3.55;3.10;;;27.90;53.40;;;;;;5034459;28;20029;-70
2023/06/22 12:16:42;;;;;;;4.32;3.00;;;27.90;53.40;;;;;;5032998;28;20033;-70
2023/06/22 12:19:07;;;;;;;3.65;2.95;;;27.90;53.20;;;;;;5034069;28;20026;-70
2023/06/22 12:21:33;;;;;;;3.65;2.90;;;27.90;53.10;;;;;;5032817;28;20095;-69
2023/06/22 12:23:58;;;;;;;3.13;2.70;;;28.00;52.90;;;;;;5033984;28;20025;-70
2023/06/22 12:26:24;;;;;;;3.63;2.90;;;28.10;52.60;;;;;;5015848;28;20392;-70
2023/06/22 12:28:50;;;;;;;3.20;2.90;;;28.20;52.40;;;;;;5034155;28;20025;-70
2023/06/22 12:31:15;;;;;;;4.70;2.92;;;28.20;52.20;;;;;;5033771;28;20029;-70
2023/06/22 12:33:41;;;;;;;3.20;2.90;;;28.30;52.10;;;;;;5015794;28;20368;-70
2023/06/22 12:36:07;;;;;;;4.35;3.15;;;28.50;52.00;;;;;;5032344;28;20124;-70
2023/06/22 12:38:33;;;;;;;2.88;2.67;;;28.60;51.60;;;;;;5033924;28;20183;-70
2023/06/22 12:40:59;;;;;;;3.30;2.80;;;28.70;51.50;;;;;;5015957;28;20025;-70
2023/06/22 12:43:24;;;;;;;3.50;2.90;;;28.80;51.40;;;;;;5033657;28;20050;-70